createdAt,value
2022-12-16T00:00:07.079Z,12.73
2022-12-16T00:02:34.582Z,20.55
2022-12-16T00:05:01.842Z,12.75
2022-12-16T00:07:29.202Z,13.50
2022-12-16T00:09:56.314Z,13.70
2022-12-16T00:12:23.601Z,14.70
2022-12-16T00:14:50.830Z,14.27
2022-12-16T00:17:19.142Z,11.15
2022-12-16T00:19:46.272Z,10.80
2022-12-16T00:22:13.524Z,12.93
2022-12-16T00:24:40.671Z,19.10
2022-12-16T00:27:07.915Z,11.90
2022-12-16T00:29:35.371Z,18.30
2022-12-16T00:32:02.928Z,16.60
2022-12-16T00:34:30.276Z,9.38
2022-12-16T00:36:57.410Z,20.60
2022-12-16T00:39:24.546Z,12.10
2022-12-16T00:41:51.992Z,16.88
2022-12-16T00:44:19.207Z,16.23
2022-12-16T00:46:46.436Z,13.43
2022-12-16T00:49:13.617Z,8.90
2022-12-16T00:51:40.760Z,20.73
2022-12-16T00:54:07.913Z,18.15
2022-12-16T00:56:35.371Z,9.32
2022-12-16T00:59:02.510Z,11.10
2022-12-16T01:01:29.908Z,13.48
2022-12-16T01:03:58.010Z,9.48
2022-12-16T01:06:25.352Z,11.65
2022-12-16T01:08:52.596Z,12.95
2022-12-16T01:11:22.159Z,6.93
2022-12-16T01:13:55.271Z,10.48
2022-12-16T01:16:22.685Z,11.82
2022-12-16T01:18:49.947Z,16.85
2022-12-16T01:21:17.128Z,9.23
2022-12-16T01:23:44.369Z,12.20
2022-12-16T01:26:15.468Z,14.50
2022-12-16T01:28:42.743Z,18.15
2022-12-16T01:31:09.897Z,10.13
2022-12-16T01:33:37.121Z,18.33
2022-12-16T01:36:08.339Z,13.90
2022-12-16T01:38:35.814Z,11.40
2022-12-16T01:41:03.854Z,15.30
2022-12-16T01:43:32.702Z,14.77
2022-12-16T01:46:06.557Z,13.63
2022-12-16T01:48:34.215Z,14.68
2022-12-16T01:51:03.870Z,14.68
2022-12-16T01:53:31.892Z,10.60
2022-12-16T01:56:00.254Z,15.82
2022-12-16T01:58:29.454Z,16.38
2022-12-16T02:00:56.803Z,18.25
2022-12-16T02:03:24.144Z,12.43
2022-12-16T02:05:51.750Z,11.20
2022-12-16T02:08:20.646Z,10.70
2022-12-16T02:14:01.135Z,7.70
2022-12-16T02:16:33.517Z,11.68
2022-12-16T02:19:19.440Z,10.90
2022-12-16T02:22:05.557Z,12.63
2022-12-16T02:24:51.617Z,14.55
2022-12-16T02:30:41.398Z,13.02
2022-12-16T02:33:22.200Z,12.85
2022-12-16T02:35:59.182Z,15.02
2022-12-16T02:38:42.847Z,17.02
2022-12-16T02:41:15.333Z,10.20
2022-12-16T02:46:28.781Z,7.00
2022-12-16T02:48:55.990Z,7.82
2022-12-16T02:51:25.712Z,14.60
2022-12-16T02:53:54.158Z,11.20
2022-12-16T02:56:21.311Z,12.50
2022-12-16T02:58:48.458Z,13.07
2022-12-16T03:04:05.842Z,14.68
2022-12-16T03:06:33.983Z,9.10
2022-12-16T03:09:02.796Z,11.88
2022-12-16T03:11:31.205Z,9.90
2022-12-16T03:13:58.727Z,12.00
2022-12-16T03:16:28.503Z,9.63
2022-12-16T03:21:53.516Z,11.95
2022-12-16T03:24:21.083Z,13.45
2022-12-16T03:27:12.866Z,10.60
2022-12-16T03:29:51.157Z,11.50
2022-12-16T03:32:21.460Z,15.57
2022-12-16T03:37:39.113Z,10.77
2022-12-16T03:40:07.875Z,11.68
2022-12-16T03:42:36.404Z,10.73
2022-12-16T03:45:04.076Z,10.65
2022-12-16T03:47:31.504Z,11.55
2022-12-16T03:49:58.722Z,8.93
2022-12-16T03:55:10.626Z,7.57
2022-12-16T03:57:37.991Z,8.85
2022-12-16T04:00:05.940Z,10.95
2022-12-16T04:02:33.310Z,10.80
2022-12-16T04:05:00.795Z,12.27
2022-12-16T04:07:27.976Z,9.30
2022-12-16T04:09:55.221Z,14.35
2022-12-16T04:12:41.418Z,11.35
2022-12-16T04:15:38.163Z,12.80
2022-12-16T04:18:24.873Z,14.38
2022-12-16T04:21:12.344Z,9.68
2022-12-16T04:24:04.652Z,14.35
2022-12-16T04:26:31.907Z,7.65
2022-12-16T04:28:59.841Z,13.80
2022-12-16T04:31:27.059Z,6.60
2022-12-16T04:34:12.911Z,9.75
2022-12-16T04:36:58.806Z,7.75
2022-12-16T04:39:44.915Z,6.35
2022-12-16T04:45:34.199Z,7.00
2022-12-16T04:48:20.424Z,14.52
2022-12-16T04:51:06.187Z,12.30
2022-12-16T04:53:52.153Z,12.35
2022-12-16T04:56:37.923Z,14.80
2022-12-16T05:02:27.829Z,10.75
2022-12-16T05:05:13.638Z,8.52
2022-12-16T05:07:59.435Z,10.00
2022-12-16T05:10:45.216Z,8.48
2022-12-16T05:13:48.139Z,11.23
2022-12-16T05:16:33.665Z,12.40
2022-12-16T05:19:19.287Z,6.65
2022-12-16T05:22:04.773Z,13.45
2022-12-16T05:24:53.022Z,18.20
2022-12-16T05:27:39.102Z,9.90
2022-12-16T05:30:29.124Z,9.30
2022-12-16T05:36:03.540Z,11.25
2022-12-16T05:38:49.226Z,13.98
2022-12-16T05:41:35.091Z,11.30
2022-12-16T05:44:28.533Z,10.80
2022-12-16T05:47:14.221Z,16.15
2022-12-16T05:50:17.104Z,8.93
2022-12-16T05:53:12.639Z,11.40
2022-12-16T05:55:58.871Z,11.80
2022-12-16T05:58:44.645Z,18.77
2022-12-16T06:01:30.508Z,6.75
2022-12-16T06:04:17.937Z,13.40
2022-12-16T06:07:04.097Z,13.05
2022-12-16T06:09:56.068Z,10.65
2022-12-16T06:12:42.661Z,10.85
2022-12-16T06:15:39.452Z,6.40
2022-12-16T06:18:25.049Z,10.30
2022-12-16T06:21:11.108Z,9.77
2022-12-16T06:23:57.099Z,12.43
2022-12-16T06:26:43.044Z,12.07
2022-12-16T06:29:29.096Z,9.25
2022-12-16T06:32:14.635Z,5.40
2022-12-16T06:35:00.439Z,12.15
2022-12-16T06:37:46.204Z,9.60
2022-12-16T06:40:32.073Z,9.25
2022-12-16T06:43:17.849Z,8.88
2022-12-16T06:46:03.749Z,13.95
2022-12-16T06:48:49.427Z,9.18
2022-12-16T06:51:35.298Z,9.80
2022-12-16T06:54:21.114Z,7.65
2022-12-16T06:57:07.082Z,11.52
2022-12-16T06:59:52.849Z,11.15
2022-12-16T07:02:38.672Z,8.43
2022-12-16T07:05:25.093Z,20.27
2022-12-16T07:08:11.556Z,11.40
2022-12-16T07:11:17.700Z,6.70
2022-12-16T07:14:04.110Z,6.05
2022-12-16T07:16:50.172Z,11.75
2022-12-16T07:19:35.879Z,7.15
2022-12-16T07:22:21.696Z,7.60
2022-12-16T07:25:07.548Z,10.20
2022-12-16T07:27:53.104Z,11.25
2022-12-16T07:30:39.243Z,11.15
2022-12-16T07:33:25.159Z,15.73
2022-12-16T07:36:10.987Z,10.80
2022-12-16T07:38:57.022Z,8.88
2022-12-16T07:41:42.878Z,14.07
2022-12-16T07:44:28.872Z,11.00
2022-12-16T07:47:14.962Z,12.63
2022-12-16T07:50:00.748Z,8.68
2022-12-16T07:52:46.793Z,16.30
2022-12-16T07:55:32.874Z,8.90
2022-12-16T07:58:19.007Z,12.82
2022-12-16T08:01:09.209Z,9.73
2022-12-16T08:03:56.132Z,10.55
2022-12-16T08:06:42.369Z,9.20
2022-12-16T08:09:28.432Z,8.75
2022-12-16T08:12:14.305Z,9.55
2022-12-16T08:15:00.027Z,12.30
2022-12-16T08:17:45.755Z,13.45
2022-12-16T08:20:31.703Z,12.98
2022-12-16T08:23:17.577Z,12.57
2022-12-16T08:26:04.983Z,10.20
2022-12-16T08:28:50.751Z,10.52
2022-12-16T08:31:36.807Z,9.30
2022-12-16T08:34:22.963Z,15.55
2022-12-16T08:37:08.899Z,7.32
2022-12-16T08:40:17.657Z,12.10
2022-12-16T08:43:00.876Z,9.15
2022-12-16T08:45:48.081Z,6.25
2022-12-16T08:48:33.810Z,11.15
2022-12-16T08:51:26.354Z,7.68
2022-12-16T08:54:12.463Z,12.88
2022-12-16T08:56:58.253Z,11.02
2022-12-16T08:59:44.462Z,18.33
2022-12-16T09:02:30.967Z,11.88
2022-12-16T09:05:17.247Z,14.43
2022-12-16T09:08:03.168Z,18.48
2022-12-16T09:10:48.925Z,12.07
2022-12-16T09:13:35.571Z,10.98
2022-12-16T09:16:22.014Z,9.07
2022-12-16T09:19:07.935Z,7.30
2022-12-16T09:21:55.111Z,11.45
2022-12-16T09:24:41.063Z,7.63
2022-12-16T09:27:27.107Z,11.80
2022-12-16T09:30:13.056Z,7.82
2022-12-16T09:33:02.420Z,8.60
2022-12-16T09:35:48.417Z,11.57
2022-12-16T09:38:34.572Z,7.20
2022-12-16T09:41:41.222Z,8.40
2022-12-16T09:44:42.575Z,9.57
2022-12-16T09:47:37.617Z,9.68
2022-12-16T09:50:24.319Z,10.48
2022-12-16T09:53:15.701Z,15.95
2022-12-16T09:56:02.387Z,6.93
2022-12-16T09:59:16.839Z,7.97
2022-12-16T10:02:02.996Z,9.55
2022-12-16T10:04:48.854Z,8.63
2022-12-16T10:07:38.269Z,8.32
2022-12-16T10:10:38.895Z,6.55
2022-12-16T10:13:43.356Z,8.38
2022-12-16T10:16:35.053Z,11.85
2022-12-16T10:19:26.003Z,8.27
2022-12-16T10:22:11.939Z,10.77
2022-12-16T10:24:57.723Z,15.05
2022-12-16T10:27:49.235Z,12.65
2022-12-16T10:30:34.840Z,8.50
2022-12-16T10:33:21.245Z,9.75
2022-12-16T10:36:09.765Z,6.95
2022-12-16T10:39:09.420Z,11.20
2022-12-16T10:41:57.154Z,9.77
2022-12-16T10:45:02.956Z,9.18
2022-12-16T10:47:49.382Z,7.30
2022-12-16T10:50:35.472Z,15.70
2022-12-16T10:53:24.174Z,5.47
2022-12-16T10:56:29.132Z,9.63
2022-12-16T10:59:17.869Z,9.05
2022-12-16T11:02:15.262Z,10.75
2022-12-16T11:05:01.612Z,9.00
2022-12-16T11:08:02.931Z,8.20
2022-12-16T11:10:51.672Z,8.02
2022-12-16T11:13:41.544Z,8.48
2022-12-16T11:16:27.581Z,6.18
2022-12-16T11:19:13.369Z,12.05
2022-12-16T11:21:59.166Z,13.70
2022-12-16T11:24:45.063Z,10.00
2022-12-16T11:27:42.621Z,6.97
2022-12-16T11:30:36.514Z,9.00
2022-12-16T11:33:26.023Z,12.13
2022-12-16T11:36:39.913Z,12.07
2022-12-16T11:39:27.227Z,6.45
2022-12-16T11:42:14.343Z,7.35
2022-12-16T11:45:03.789Z,8.50
2022-12-16T11:47:49.267Z,12.98
2022-12-16T11:50:37.259Z,6.10
2022-12-16T11:53:24.888Z,9.98
2022-12-16T11:56:16.279Z,10.55
2022-12-16T11:59:06.833Z,9.38
2022-12-16T12:01:56.581Z,9.60
2022-12-16T12:04:42.469Z,9.65
2022-12-16T12:07:28.383Z,14.93
2022-12-16T12:10:21.809Z,12.15
2022-12-16T12:13:11.490Z,10.07
2022-12-16T12:16:06.632Z,12.02
2022-12-16T12:19:14.128Z,10.00
2022-12-16T12:22:16.538Z,9.93
2022-12-16T12:25:08.536Z,122.97
2022-12-16T12:27:56.820Z,6.43
2022-12-16T12:30:43.399Z,12.18
2022-12-16T12:33:29.245Z,6.05
2022-12-16T12:36:21.114Z,9.63
2022-12-16T12:39:06.822Z,8.98
2022-12-16T12:42:04.848Z,10.30
2022-12-16T12:45:14.174Z,12.75
2022-12-16T12:48:05.943Z,10.90
2022-12-16T12:50:59.570Z,8.63
2022-12-16T12:54:04.021Z,8.55
2022-12-16T12:57:06.869Z,11.88
2022-12-16T13:00:11.134Z,8.30
2022-12-16T13:03:11.442Z,12.88
2022-12-16T13:05:58.636Z,9.70
2022-12-16T13:08:50.928Z,15.90
2022-12-16T13:11:37.805Z,16.50
2022-12-16T13:14:43.311Z,25.42
2022-12-16T13:17:46.070Z,10.75
2022-12-16T13:20:50.591Z,11.05
2022-12-16T13:23:55.963Z,10.82
2022-12-16T13:26:43.260Z,14.10
2022-12-16T13:29:44.505Z,14.98
2022-12-16T13:32:38.153Z,14.68
2022-12-16T13:35:26.987Z,13.20
2022-12-16T13:38:12.685Z,9.00
2022-12-16T13:41:13.616Z,11.52
2022-12-16T13:44:17.101Z,13.23
2022-12-16T13:47:05.306Z,12.40
2022-12-16T13:49:56.950Z,13.45
2022-12-16T13:52:47.513Z,16.35
2022-12-16T13:55:35.814Z,18.42
2022-12-16T13:58:23.288Z,14.20
2022-12-16T14:01:17.277Z,11.18
2022-12-16T14:04:05.012Z,14.65
2022-12-16T14:06:53.051Z,20.25
2022-12-16T14:09:44.025Z,14.10
2022-12-16T14:12:36.007Z,17.63
2022-12-16T14:15:26.867Z,9.45
2022-12-16T14:18:25.458Z,9.57
2022-12-16T14:21:15.219Z,12.35
2022-12-16T14:24:08.380Z,16.58
2022-12-16T14:26:55.002Z,13.30
2022-12-16T14:29:41.917Z,13.80
2022-12-16T14:32:41.078Z,13.45
2022-12-16T14:35:32.175Z,24.05
2022-12-16T14:38:18.428Z,59.33
2022-12-16T14:41:09.828Z,36.00
2022-12-16T14:43:55.784Z,40.20
2022-12-16T14:46:49.858Z,43.35
2022-12-16T14:49:46.122Z,33.10
2022-12-16T14:52:42.159Z,24.75
2022-12-16T14:55:33.203Z,63.65
2022-12-16T14:58:23.313Z,64.72
2022-12-16T15:01:15.324Z,49.03
2022-12-16T15:04:03.894Z,31.13
2022-12-16T15:06:52.529Z,19.70
2022-12-16T15:09:44.951Z,19.77
2022-12-16T15:12:32.329Z,13.82
2022-12-16T15:15:21.424Z,18.17
2022-12-16T15:18:09.483Z,23.83
2022-12-16T15:20:56.934Z,23.42
2022-12-16T15:23:42.711Z,29.17
2022-12-16T15:26:29.200Z,19.23
2022-12-16T15:29:15.080Z,23.60
2022-12-16T15:32:03.604Z,24.35
2022-12-16T15:34:52.166Z,16.88
2022-12-16T15:37:40.964Z,17.98
2022-12-16T15:40:47.253Z,13.55
2022-12-16T15:43:44.775Z,16.45
2022-12-16T15:46:44.170Z,21.73
2022-12-16T15:49:35.822Z,17.02
2022-12-16T15:52:21.861Z,15.85
2022-12-16T15:55:09.076Z,19.45
2022-12-16T15:57:56.055Z,12.88
2022-12-16T16:00:51.154Z,13.48
2022-12-16T16:03:51.280Z,15.98
2022-12-16T16:06:41.544Z,17.92
2022-12-16T16:09:32.237Z,13.55
2022-12-16T16:12:18.249Z,16.83
2022-12-16T16:15:05.235Z,13.38
2022-12-16T16:17:51.134Z,23.42
2022-12-16T16:20:37.475Z,28.85
2022-12-16T16:23:24.069Z,21.48
2022-12-16T16:26:10.381Z,23.65
2022-12-16T16:28:56.432Z,34.50
2022-12-16T16:31:42.792Z,29.40
2022-12-16T16:34:29.328Z,15.40
2022-12-16T16:37:16.665Z,12.52
2022-12-16T16:40:07.847Z,16.38
2022-12-16T16:42:55.118Z,15.80
2022-12-16T16:45:41.448Z,14.45
2022-12-16T16:48:31.707Z,12.18
2022-12-16T16:51:18.233Z,13.95
2022-12-16T16:54:04.137Z,11.68
2022-12-16T16:56:54.559Z,12.63
2022-12-16T16:59:44.136Z,15.13
2022-12-16T17:02:42.402Z,15.48
2022-12-16T17:05:31.960Z,14.45
2022-12-16T17:08:18.019Z,17.05
2022-12-16T17:11:03.926Z,14.32
2022-12-16T17:13:50.187Z,11.60
2022-12-16T17:16:36.497Z,8.20
2022-12-16T17:19:22.970Z,15.43
2022-12-16T17:22:08.911Z,16.67
2022-12-16T17:24:55.041Z,13.07
2022-12-16T17:27:42.917Z,15.95
2022-12-16T17:30:46.505Z,10.68
2022-12-16T17:33:33.583Z,15.23
2022-12-16T17:36:19.889Z,9.82
2022-12-16T17:39:05.728Z,10.88
2022-12-16T17:41:52.590Z,16.63
2022-12-16T17:44:38.688Z,22.13
2022-12-16T17:47:24.446Z,17.80
2022-12-16T17:50:10.627Z,15.35
2022-12-16T17:52:57.169Z,27.55
2022-12-16T17:55:42.962Z,38.05
2022-12-16T17:58:30.961Z,36.88
2022-12-16T18:01:24.218Z,31.02
2022-12-16T18:04:11.029Z,29.25
2022-12-16T18:06:57.139Z,30.48
2022-12-16T18:09:42.907Z,32.30
2022-12-16T18:12:29.070Z,42.72
2022-12-16T18:15:15.176Z,40.42
2022-12-16T18:18:01.281Z,75.95
2022-12-16T18:20:47.468Z,27.13
2022-12-16T18:23:33.863Z,109.93
2022-12-16T18:26:21.048Z,91.35
2022-12-16T18:29:07.072Z,141.57
2022-12-16T18:31:53.463Z,118.43
2022-12-16T18:34:39.821Z,118.28
2022-12-16T18:37:25.712Z,88.10
2022-12-16T18:40:11.749Z,52.25
2022-12-16T18:42:57.513Z,44.55
2022-12-16T18:45:43.436Z,32.50
2022-12-16T18:48:29.283Z,34.92
2022-12-16T18:51:16.016Z,33.03
2022-12-16T18:54:01.864Z,29.85
2022-12-16T18:56:48.002Z,34.50
2022-12-16T18:59:34.244Z,35.53
2022-12-16T19:02:20.483Z,25.05
2022-12-16T19:05:06.893Z,27.13
2022-12-16T19:07:54.004Z,34.53
2022-12-16T19:10:39.795Z,32.40
2022-12-16T19:13:25.725Z,31.15
2022-12-16T19:16:15.679Z,30.00
2022-12-16T19:19:01.944Z,20.85
2022-12-16T19:21:52.322Z,21.85
2022-12-16T19:24:43.029Z,18.90
2022-12-16T19:27:29.169Z,24.15
2022-12-16T19:30:15.309Z,27.02
2022-12-16T19:33:02.216Z,24.02
2022-12-16T19:35:48.043Z,17.98
2022-12-16T19:38:34.194Z,24.50
2022-12-16T19:41:20.474Z,17.75
2022-12-16T19:44:09.517Z,16.20
2022-12-16T19:46:58.880Z,12.75
2022-12-16T19:49:45.257Z,12.93
2022-12-16T19:52:31.968Z,11.57
2022-12-16T19:55:18.295Z,11.73
2022-12-16T19:58:04.281Z,9.95
2022-12-16T20:00:50.407Z,11.93
2022-12-16T20:03:36.990Z,8.73
2022-12-16T20:06:24.014Z,8.23
2022-12-16T20:09:10.817Z,13.85
2022-12-16T20:11:57.025Z,13.75
2022-12-16T20:14:43.360Z,7.25
2022-12-16T20:17:29.349Z,11.48
2022-12-16T20:20:15.637Z,10.95
2022-12-16T20:23:01.558Z,8.35
2022-12-16T20:25:47.549Z,9.55
2022-12-16T20:28:35.568Z,11.77
2022-12-16T20:31:22.143Z,12.57
2022-12-16T20:34:12.799Z,7.57
2022-12-16T20:36:58.680Z,8.65
2022-12-16T20:39:49.529Z,7.43
2022-12-16T20:42:38.739Z,13.35
2022-12-16T20:45:24.901Z,7.15
2022-12-16T20:48:12.419Z,6.70
2022-12-16T20:50:58.409Z,4.00
2022-12-16T20:53:44.743Z,3.67
2022-12-16T20:56:30.549Z,8.05
2022-12-16T20:59:16.603Z,12.13
2022-12-16T21:02:22.665Z,32.28
2022-12-16T21:05:08.676Z,18.55
2022-12-16T21:07:56.941Z,11.82
2022-12-16T21:10:42.856Z,9.43
2022-12-16T21:13:33.684Z,7.35
2022-12-16T21:16:20.986Z,15.70
2022-12-16T21:19:06.950Z,17.45
2022-12-16T21:21:53.049Z,17.88
2022-12-16T21:24:39.438Z,19.98
2022-12-16T21:27:25.095Z,19.25
2022-12-16T21:30:10.869Z,34.58
2022-12-16T21:32:57.172Z,28.60
2022-12-16T21:35:43.386Z,34.35
2022-12-16T21:38:29.748Z,34.17
2022-12-16T21:41:16.100Z,29.88
2022-12-16T21:44:02.031Z,26.60
2022-12-16T21:46:48.014Z,23.05
2022-12-16T21:49:33.869Z,15.27
2022-12-16T21:52:20.018Z,8.45
2022-12-16T21:55:06.236Z,12.50
2022-12-16T21:57:53.253Z,12.32
2022-12-16T22:00:39.496Z,11.05
2022-12-16T22:03:25.563Z,12.25
2022-12-16T22:06:11.391Z,12.07
2022-12-16T22:08:57.192Z,12.23
2022-12-16T22:11:42.913Z,10.77
2022-12-16T22:14:28.814Z,12.98
2022-12-16T22:17:14.737Z,6.78
2022-12-16T22:20:00.624Z,3.50
2022-12-16T22:22:46.405Z,4.53
2022-12-16T22:25:32.490Z,11.77
2022-12-16T22:28:18.259Z,1.42
2022-12-16T22:31:04.596Z,2.22
2022-12-16T22:33:50.944Z,2.58
2022-12-16T22:36:37.994Z,8.88
2022-12-16T22:39:24.096Z,11.32
2022-12-16T22:42:09.725Z,9.02
2022-12-16T22:44:56.506Z,9.77
2022-12-16T22:47:42.558Z,5.57
2022-12-16T22:50:28.271Z,6.65
2022-12-16T22:53:14.290Z,2.95
2022-12-16T22:56:02.118Z,3.85
2022-12-16T22:58:48.406Z,7.57
2022-12-16T23:01:34.369Z,4.40
2022-12-16T23:04:20.267Z,3.92
2022-12-16T23:07:06.231Z,0.57
2022-12-16T23:09:53.280Z,4.53
2022-12-16T23:12:40.186Z,1.45
2022-12-16T23:15:26.739Z,3.63
2022-12-16T23:18:29.377Z,3.70
2022-12-16T23:21:15.051Z,4.43
2022-12-16T23:24:01.057Z,1.25
2022-12-16T23:26:46.806Z,0.25
2022-12-16T23:29:32.483Z,2.80
2022-12-16T23:32:18.298Z,1.10
2022-12-16T23:35:05.023Z,3.95
2022-12-16T23:37:50.716Z,3.30
2022-12-16T23:40:36.463Z,2.72
2022-12-16T23:43:22.232Z,3.22
2022-12-16T23:46:08.245Z,2.38
2022-12-16T23:48:53.919Z,3.20
2022-12-16T23:51:39.632Z,0.65
2022-12-16T23:54:25.355Z,3.03
2022-12-16T23:57:11.228Z,3.33
2022-12-16T23:59:56.956Z,1.15
